sensor_id;sensor_type;location;lat;lon;timestamp;temperature;humidity
10089;DHT22;51898;49.864;8.550;2022-07-21T00:01:34;21.40;99.90
10089;DHT22;51898;49.864;8.550;2022-07-21T00:04:36;21.40;99.90
10089;DHT22;51898;49.864;8.550;2022-07-21T00:07:38;21.30;99.90
10089;DHT22;51898;49.864;8.550;2022-07-21T00:10:40;21.20;99.90
10089;DHT22;51898;49.864;8.550;2022-07-21T00:13:41;21.20;99.90
10089;DHT22;51898;49.864;8.550;2022-07-21T00:16:44;21.10;99.90
10089;DHT22;51898;49.864;8.550;2022-07-21T00:19:46;21.00;99.90
10089;DHT22;51898;49.864;8.550;2022-07-21T00:22:48;21.10;99.90
10089;DHT22;51898;49.864;8.550;2022-07-21T00:25:50;21.10;99.90
10089;DHT22;51898;49.864;8.550;2022-07-21T00:28:52;21.00;99.90
10089;DHT22;51898;49.864;8.550;2022-07-21T00:31:54;21.00;99.90
10089;DHT22;51898;49.864;8.550;2022-07-21T00:34:55;20.90;99.90
10089;DHT22;51898;49.864;8.550;2022-07-21T00:37:57;20.90;99.90
10089;DHT22;51898;49.864;8.550;2022-07-21T00:40:59;20.90;99.90
10089;DHT22;51898;49.864;8.550;2022-07-21T00:44:01;20.90;99.90
10089;DHT22;51898;49.864;8.550;2022-07-21T00:47:03;20.90;99.90
10089;DHT22;51898;49.864;8.550;2022-07-21T00:50:11;20.90;99.90
10089;DHT22;51898;49.864;8.550;2022-07-21T00:53:13;20.90;99.90
10089;DHT22;51898;49.864;8.550;2022-07-21T00:56:16;20.90;99.90
10089;DHT22;51898;49.864;8.550;2022-07-21T00:59:18;20.80;99.90
10089;DHT22;51898;49.864;8.550;2022-07-21T01:02:20;20.80;99.90
10089;DHT22;51898;49.864;8.550;2022-07-21T01:05:22;20.80;99.90
10089;DHT22;51898;49.864;8.550;2022-07-21T01:08:24;20.80;99.90
10089;DHT22;51898;49.864;8.550;2022-07-21T01:11:27;20.80;99.90
10089;DHT22;51898;49.864;8.550;2022-07-21T01:14:31;20.90;99.90
10089;DHT22;51898;49.864;8.550;2022-07-21T01:17:33;20.90;99.90
10089;DHT22;51898;49.864;8.550;2022-07-21T01:20:35;20.80;99.90
10089;DHT22;51898;49.864;8.550;2022-07-21T01:23:37;20.80;99.90
10089;DHT22;51898;49.864;8.550;2022-07-21T01:26:44;20.80;99.90
10089;DHT22;51898;49.864;8.550;2022-07-21T01:29:46;20.80;99.90
10089;DHT22;51898;49.864;8.550;2022-07-21T01:32:47;20.80;99.90
10089;DHT22;51898;49.864;8.550;2022-07-21T01:35:49;20.80;99.90
10089;DHT22;51898;49.864;8.550;2022-07-21T01:38:51;20.80;99.90
10089;DHT22;51898;49.864;8.550;2022-07-21T01:42:11;20.80;99.90
10089;DHT22;51898;49.864;8.550;2022-07-21T01:45:13;20.70;99.90
10089;DHT22;51898;49.864;8.550;2022-07-21T01:48:14;20.70;99.90
10089;DHT22;51898;49.864;8.550;2022-07-21T01:55:32;20.70;99.90
10089;DHT22;51898;49.864;8.550;2022-07-21T01:58:35;20.70;99.90
10089;DHT22;51898;49.864;8.550;2022-07-21T02:01:37;20.80;99.90
10089;DHT22;51898;49.864;8.550;2022-07-21T02:04:38;20.80;99.90
10089;DHT22;51898;49.864;8.550;2022-07-21T02:07:40;20.80;99.90
10089;DHT22;51898;49.864;8.550;2022-07-21T02:10:42;20.80;99.90
10089;DHT22;51898;49.864;8.550;2022-07-21T02:13:44;20.80;99.90
10089;DHT22;51898;49.864;8.550;2022-07-21T02:16:46;20.90;99.90
10089;DHT22;51898;49.864;8.550;2022-07-21T02:19:48;20.80;99.90
10089;DHT22;51898;49.864;8.550;2022-07-21T02:22:51;20.80;99.90
10089;DHT22;51898;49.864;8.550;2022-07-21T02:25:53;20.80;99.90
10089;DHT22;51898;49.864;8.550;2022-07-21T02:28:55;20.80;99.90
10089;DHT22;51898;49.864;8.550;2022-07-21T02:31:57;20.70;99.90
10089;DHT22;51898;49.864;8.550;2022-07-21T02:34:59;20.70;99.90
10089;DHT22;51898;49.864;8.550;2022-07-21T02:38:00;20.70;99.90
10089;DHT22;51898;49.864;8.550;2022-07-21T02:41:03;20.70;99.90
10089;DHT22;51898;49.864;8.550;2022-07-21T02:44:04;20.80;99.90
10089;DHT22;51898;49.864;8.550;2022-07-21T02:47:07;20.70;99.90
10089;DHT22;51898;49.864;8.550;2022-07-21T02:50:09;20.70;99.90
10089;DHT22;51898;49.864;8.550;2022-07-21T02:53:13;20.70;99.90
10089;DHT22;51898;49.864;8.550;2022-07-21T02:56:18;20.70;99.90
10089;DHT22;51898;49.864;8.550;2022-07-21T02:59:20;20.70;99.90
10089;DHT22;51898;49.864;8.550;2022-07-21T03:02:22;20.60;99.90
10089;DHT22;51898;49.864;8.550;2022-07-21T03:05:23;20.60;99.90
10089;DHT22;51898;49.864;8.550;2022-07-21T03:08:26;20.60;99.90
10089;DHT22;51898;49.864;8.550;2022-07-21T03:11:28;20.50;99.90
10089;DHT22;51898;49.864;8.550;2022-07-21T03:14:29;20.50;99.90
10089;DHT22;51898;49.864;8.550;2022-07-21T03:17:31;20.50;99.90
10089;DHT22;51898;49.864;8.550;2022-07-21T03:20:36;20.50;99.90
10089;DHT22;51898;49.864;8.550;2022-07-21T03:23:39;20.40;99.90
10089;DHT22;51898;49.864;8.550;2022-07-21T03:26:41;20.40;99.90
10089;DHT22;51898;49.864;8.550;2022-07-21T03:29:42;20.40;99.90
10089;DHT22;51898;49.864;8.550;2022-07-21T03:32:44;20.40;99.90
10089;DHT22;51898;49.864;8.550;2022-07-21T03:35:46;20.40;99.90
10089;DHT22;51898;49.864;8.550;2022-07-21T03:38:48;20.50;99.90
10089;DHT22;51898;49.864;8.550;2022-07-21T03:41:52;20.50;99.90
10089;DHT22;51898;49.864;8.550;2022-07-21T03:44:54;20.40;99.90
10089;DHT22;51898;49.864;8.550;2022-07-21T03:48:01;20.40;99.90
10089;DHT22;51898;49.864;8.550;2022-07-21T03:51:02;20.40;99.90
10089;DHT22;51898;49.864;8.550;2022-07-21T03:54:04;20.40;99.90
10089;DHT22;51898;49.864;8.550;2022-07-21T03:57:06;20.40;99.90
10089;DHT22;51898;49.864;8.550;2022-07-21T04:00:10;20.30;99.90
10089;DHT22;51898;49.864;8.550;2022-07-21T04:03:13;20.30;99.90
10089;DHT22;51898;49.864;8.550;2022-07-21T04:06:15;20.30;99.90
10089;DHT22;51898;49.864;8.550;2022-07-21T04:09:16;20.30;99.90
10089;DHT22;51898;49.864;8.550;2022-07-21T04:12:19;20.30;99.90
10089;DHT22;51898;49.864;8.550;2022-07-21T04:15:21;20.40;99.90
10089;DHT22;51898;49.864;8.550;2022-07-21T04:18:23;20.40;99.90
10089;DHT22;51898;49.864;8.550;2022-07-21T04:21:24;20.50;99.90
10089;DHT22;51898;49.864;8.550;2022-07-21T04:24:26;20.60;99.90
10089;DHT22;51898;49.864;8.550;2022-07-21T04:27:28;20.70;99.90
10089;DHT22;51898;49.864;8.550;2022-07-21T04:30:29;20.80;99.90
10089;DHT22;51898;49.864;8.550;2022-07-21T04:33:31;21.10;99.90
10089;DHT22;51898;49.864;8.550;2022-07-21T04:36:38;21.20;99.90
10089;DHT22;51898;49.864;8.550;2022-07-21T04:39:40;21.40;99.90
10089;DHT22;51898;49.864;8.550;2022-07-21T04:42:42;21.60;99.90
10089;DHT22;51898;49.864;8.550;2022-07-21T04:45:44;21.90;99.90
10089;DHT22;51898;49.864;8.550;2022-07-21T04:48:46;22.00;99.90
10089;DHT22;51898;49.864;8.550;2022-07-21T04:51:47;22.10;99.90
10089;DHT22;51898;49.864;8.550;2022-07-21T04:54:50;22.00;99.90
10089;DHT22;51898;49.864;8.550;2022-07-21T04:57:53;21.90;99.90
10089;DHT22;51898;49.864;8.550;2022-07-21T05:00:54;21.80;99.90
10089;DHT22;51898;49.864;8.550;2022-07-21T05:03:56;21.80;99.90
10089;DHT22;51898;49.864;8.550;2022-07-21T05:06:58;22.10;99.90
10089;DHT22;51898;49.864;8.550;2022-07-21T05:10:04;22.30;99.90
10089;DHT22;51898;49.864;8.550;2022-07-21T05:13:05;22.40;99.90
10089;DHT22;51898;49.864;8.550;2022-07-21T05:16:07;22.40;99.90
10089;DHT22;51898;49.864;8.550;2022-07-21T05:19:10;22.50;99.90
10089;DHT22;51898;49.864;8.550;2022-07-21T05:22:11;22.70;99.90
10089;DHT22;51898;49.864;8.550;2022-07-21T05:25:13;22.70;99.90
10089;DHT22;51898;49.864;8.550;2022-07-21T05:28:15;23.00;99.90
10089;DHT22;51898;49.864;8.550;2022-07-21T05:31:16;23.10;99.90
10089;DHT22;51898;49.864;8.550;2022-07-21T05:34:18;23.10;99.90
10089;DHT22;51898;49.864;8.550;2022-07-21T05:37:20;23.00;99.90
10089;DHT22;51898;49.864;8.550;2022-07-21T05:40:21;23.00;99.90
10089;DHT22;51898;49.864;8.550;2022-07-21T05:43:23;23.30;99.90
10089;DHT22;51898;49.864;8.550;2022-07-21T05:46:25;23.30;99.90
10089;DHT22;51898;49.864;8.550;2022-07-21T05:49:26;23.20;99.90
10089;DHT22;51898;49.864;8.550;2022-07-21T05:52:28;23.20;99.90
10089;DHT22;51898;49.864;8.550;2022-07-21T05:55:30;23.00;99.90
10089;DHT22;51898;49.864;8.550;2022-07-21T05:58:33;22.90;99.90
10089;DHT22;51898;49.864;8.550;2022-07-21T06:01:35;22.70;99.90
10089;DHT22;51898;49.864;8.550;2022-07-21T06:04:37;22.70;99.90
10089;DHT22;51898;49.864;8.550;2022-07-21T06:07:40;23.00;99.90
10089;DHT22;51898;49.864;8.550;2022-07-21T06:10:42;23.40;99.90
10089;DHT22;51898;49.864;8.550;2022-07-21T06:13:43;23.70;99.90
10089;DHT22;51898;49.864;8.550;2022-07-21T06:16:45;23.90;99.90
10089;DHT22;51898;49.864;8.550;2022-07-21T06:19:47;24.10;99.90
10089;DHT22;51898;49.864;8.550;2022-07-21T06:22:49;24.00;99.90
10089;DHT22;51898;49.864;8.550;2022-07-21T06:25:51;23.60;99.90
10089;DHT22;51898;49.864;8.550;2022-07-21T06:28:53;23.50;99.90
10089;DHT22;51898;49.864;8.550;2022-07-21T06:31:55;23.40;99.90
10089;DHT22;51898;49.864;8.550;2022-07-21T06:34:57;23.40;99.90
10089;DHT22;51898;49.864;8.550;2022-07-21T06:37:58;23.40;99.90
10089;DHT22;51898;49.864;8.550;2022-07-21T06:41:00;23.60;99.90
10089;DHT22;51898;49.864;8.550;2022-07-21T06:44:02;23.70;99.90
10089;DHT22;51898;49.864;8.550;2022-07-21T06:47:07;23.80;99.90
10089;DHT22;51898;49.864;8.550;2022-07-21T06:50:09;23.90;99.90
10089;DHT22;51898;49.864;8.550;2022-07-21T06:53:10;24.00;99.90
10089;DHT22;51898;49.864;8.550;2022-07-21T06:56:12;24.10;99.90
10089;DHT22;51898;49.864;8.550;2022-07-21T06:59:14;23.90;99.90
10089;DHT22;51898;49.864;8.550;2022-07-21T07:02:16;24.00;99.90
10089;DHT22;51898;49.864;8.550;2022-07-21T07:05:18;24.00;99.90
10089;DHT22;51898;49.864;8.550;2022-07-21T07:08:19;23.90;99.90
10089;DHT22;51898;49.864;8.550;2022-07-21T07:11:21;24.10;99.90
10089;DHT22;51898;49.864;8.550;2022-07-21T07:14:23;24.40;99.90
10089;DHT22;51898;49.864;8.550;2022-07-21T07:17:24;24.40;99.90
10089;DHT22;51898;49.864;8.550;2022-07-21T07:20:26;24.40;99.90
10089;DHT22;51898;49.864;8.550;2022-07-21T07:23:28;24.60;99.90
10089;DHT22;51898;49.864;8.550;2022-07-21T07:26:30;24.50;99.90
10089;DHT22;51898;49.864;8.550;2022-07-21T07:29:32;24.60;99.90
10089;DHT22;51898;49.864;8.550;2022-07-21T07:32:33;24.80;99.90
10089;DHT22;51898;49.864;8.550;2022-07-21T07:35:35;24.70;99.90
10089;DHT22;51898;49.864;8.550;2022-07-21T07:38:37;24.70;99.90
10089;DHT22;51898;49.864;8.550;2022-07-21T07:41:39;24.50;99.90
10089;DHT22;51898;49.864;8.550;2022-07-21T07:44:41;24.30;99.90
10089;DHT22;51898;49.864;8.550;2022-07-21T07:47:43;24.00;99.90
10089;DHT22;51898;49.864;8.550;2022-07-21T07:50:45;23.90;99.90
10089;DHT22;51898;49.864;8.550;2022-07-21T07:53:47;23.90;99.90
10089;DHT22;51898;49.864;8.550;2022-07-21T07:56:49;23.90;99.90
10089;DHT22;51898;49.864;8.550;2022-07-21T07:59:50;23.90;99.90
10089;DHT22;51898;49.864;8.550;2022-07-21T08:02:52;23.80;99.90
10089;DHT22;51898;49.864;8.550;2022-07-21T08:05:55;23.70;99.90
10089;DHT22;51898;49.864;8.550;2022-07-21T08:08:57;23.80;99.90
10089;DHT22;51898;49.864;8.550;2022-07-21T08:11:59;23.90;99.90
10089;DHT22;51898;49.864;8.550;2022-07-21T08:15:02;24.10;99.90
10089;DHT22;51898;49.864;8.550;2022-07-21T08:18:04;24.20;99.90
10089;DHT22;51898;49.864;8.550;2022-07-21T08:21:06;24.20;99.90
10089;DHT22;51898;49.864;8.550;2022-07-21T08:24:07;24.10;99.90
10089;DHT22;51898;49.864;8.550;2022-07-21T08:27:09;24.00;99.90
10089;DHT22;51898;49.864;8.550;2022-07-21T08:30:11;23.80;99.90
10089;DHT22;51898;49.864;8.550;2022-07-21T08:33:13;23.60;99.90
10089;DHT22;51898;49.864;8.550;2022-07-21T08:36:15;23.60;99.90
10089;DHT22;51898;49.864;8.550;2022-07-21T08:39:17;23.60;99.90
10089;DHT22;51898;49.864;8.550;2022-07-21T08:42:18;23.50;99.90
10089;DHT22;51898;49.864;8.550;2022-07-21T08:45:22;23.40;99.90
10089;DHT22;51898;49.864;8.550;2022-07-21T08:48:24;23.70;99.90
10089;DHT22;51898;49.864;8.550;2022-07-21T08:51:26;24.10;99.90
10089;DHT22;51898;49.864;8.550;2022-07-21T08:54:28;24.20;99.90
10089;DHT22;51898;49.864;8.550;2022-07-21T08:57:30;24.50;99.90
10089;DHT22;51898;49.864;8.550;2022-07-21T09:00:34;24.80;99.90
10089;DHT22;51898;49.864;8.550;2022-07-21T09:03:37;25.10;99.90
10089;DHT22;51898;49.864;8.550;2022-07-21T09:06:59;25.20;99.90
10089;DHT22;51898;49.864;8.550;2022-07-21T09:10:02;25.70;99.90
10089;DHT22;51898;49.864;8.550;2022-07-21T09:13:06;26.20;99.90
10089;DHT22;51898;49.864;8.550;2022-07-21T09:16:08;26.70;99.90
10089;DHT22;51898;49.864;8.550;2022-07-21T09:22:26;26.80;99.90
10089;DHT22;51898;49.864;8.550;2022-07-21T09:28:40;27.10;99.90
10089;DHT22;51898;49.864;8.550;2022-07-21T09:31:42;27.10;99.90
10089;DHT22;51898;49.864;8.550;2022-07-21T09:34:45;27.10;99.90
10089;DHT22;51898;49.864;8.550;2022-07-21T09:37:48;26.90;99.90
10089;DHT22;51898;49.864;8.550;2022-07-21T09:40:50;26.50;99.90
10089;DHT22;51898;49.864;8.550;2022-07-21T09:43:54;26.20;99.90
10089;DHT22;51898;49.864;8.550;2022-07-21T09:47:14;26.10;99.90
10089;DHT22;51898;49.864;8.550;2022-07-21T09:50:16;26.20;99.90
10089;DHT22;51898;49.864;8.550;2022-07-21T09:53:48;26.50;99.90
10089;DHT22;51898;49.864;8.550;2022-07-21T09:56:50;26.90;99.90
10089;DHT22;51898;49.864;8.550;2022-07-21T09:59:52;27.00;99.90
10089;DHT22;51898;49.864;8.550;2022-07-21T10:03:09;26.70;99.90
10089;DHT22;51898;49.864;8.550;2022-07-21T10:06:11;26.70;99.90
10089;DHT22;51898;49.864;8.550;2022-07-21T10:09:13;26.60;99.90
10089;DHT22;51898;49.864;8.550;2022-07-21T10:12:19;26.60;99.90
10089;DHT22;51898;49.864;8.550;2022-07-21T10:15:21;26.10;99.90
10089;DHT22;51898;49.864;8.550;2022-07-21T10:18:26;26.00;99.90
10089;DHT22;51898;49.864;8.550;2022-07-21T10:25:16;25.50;99.90
10089;DHT22;51898;49.864;8.550;2022-07-21T10:28:22;25.70;99.90
10089;DHT22;51898;49.864;8.550;2022-07-21T10:31:26;25.80;99.90
10089;DHT22;51898;49.864;8.550;2022-07-21T10:34:34;26.00;99.90
10089;DHT22;51898;49.864;8.550;2022-07-21T10:40:41;26.30;99.90
10089;DHT22;51898;49.864;8.550;2022-07-21T10:43:43;26.30;99.90
10089;DHT22;51898;49.864;8.550;2022-07-21T10:50:09;26.00;99.90
10089;DHT22;51898;49.864;8.550;2022-07-21T10:53:16;26.00;99.90
10089;DHT22;51898;49.864;8.550;2022-07-21T10:56:37;26.00;99.90
10089;DHT22;51898;49.864;8.550;2022-07-21T11:03:24;26.90;99.90
10089;DHT22;51898;49.864;8.550;2022-07-21T11:06:28;26.80;99.90
10089;DHT22;51898;49.864;8.550;2022-07-21T11:09:34;26.90;99.90
10089;DHT22;51898;49.864;8.550;2022-07-21T11:12:55;27.20;99.90
10089;DHT22;51898;49.864;8.550;2022-07-21T11:16:15;27.20;99.90
10089;DHT22;51898;49.864;8.550;2022-07-21T11:19:31;27.60;99.90
10089;DHT22;51898;49.864;8.550;2022-07-21T11:22:33;28.00;99.90
10089;DHT22;51898;49.864;8.550;2022-07-21T11:25:35;28.20;99.90
10089;DHT22;51898;49.864;8.550;2022-07-21T11:28:37;28.10;99.90
10089;DHT22;51898;49.864;8.550;2022-07-21T11:31:46;28.20;99.90
10089;DHT22;51898;49.864;8.550;2022-07-21T11:37:50;28.50;99.90
10089;DHT22;51898;49.864;8.550;2022-07-21T11:40:52;28.60;99.90
10089;DHT22;51898;49.864;8.550;2022-07-21T11:43:53;28.60;99.90
10089;DHT22;51898;49.864;8.550;2022-07-21T11:46:58;28.80;99.90
10089;DHT22;51898;49.864;8.550;2022-07-21T11:50:05;28.70;99.90
10089;DHT22;51898;49.864;8.550;2022-07-21T11:53:08;28.30;99.90
10089;DHT22;51898;49.864;8.550;2022-07-21T11:56:16;28.20;99.90
10089;DHT22;51898;49.864;8.550;2022-07-21T11:59:18;28.10;99.90
10089;DHT22;51898;49.864;8.550;2022-07-21T12:02:28;27.60;99.90
10089;DHT22;51898;49.864;8.550;2022-07-21T12:05:31;27.80;99.90
10089;DHT22;51898;49.864;8.550;2022-07-21T12:08:32;28.10;99.90
10089;DHT22;51898;49.864;8.550;2022-07-21T12:11:39;28.60;99.90
10089;DHT22;51898;49.864;8.550;2022-07-21T12:14:46;28.90;99.90
10089;DHT22;51898;49.864;8.550;2022-07-21T12:17:52;29.30;99.90
10089;DHT22;51898;49.864;8.550;2022-07-21T12:21:04;29.50;99.90
10089;DHT22;51898;49.864;8.550;2022-07-21T12:24:07;29.40;98.30
10089;DHT22;51898;49.864;8.550;2022-07-21T12:27:12;29.20;98.20
10089;DHT22;51898;49.864;8.550;2022-07-21T12:30:50;28.70;98.40
10089;DHT22;51898;49.864;8.550;2022-07-21T12:33:54;28.20;99.50
10089;DHT22;51898;49.864;8.550;2022-07-21T12:37:17;27.90;99.90
10089;DHT22;51898;49.864;8.550;2022-07-21T12:40:45;27.70;99.90
10089;DHT22;51898;49.864;8.550;2022-07-21T12:44:07;27.90;99.90
10089;DHT22;51898;49.864;8.550;2022-07-21T12:47:20;28.30;99.80
10089;DHT22;51898;49.864;8.550;2022-07-21T12:50:22;28.10;99.90
10089;DHT22;51898;49.864;8.550;2022-07-21T12:53:25;27.90;99.90
10089;DHT22;51898;49.864;8.550;2022-07-21T12:56:29;27.90;99.20
10089;DHT22;51898;49.864;8.550;2022-07-21T12:59:31;27.70;99.90
10089;DHT22;51898;49.864;8.550;2022-07-21T13:02:45;27.90;99.90
10089;DHT22;51898;49.864;8.550;2022-07-21T13:05:47;28.10;99.90
10089;DHT22;51898;49.864;8.550;2022-07-21T13:08:49;28.10;99.90
10089;DHT22;51898;49.864;8.550;2022-07-21T13:11:52;28.10;99.90
10089;DHT22;51898;49.864;8.550;2022-07-21T13:14:53;28.10;99.90
10089;DHT22;51898;49.864;8.550;2022-07-21T13:17:55;28.20;99.60
10089;DHT22;51898;49.864;8.550;2022-07-21T13:20:57;28.30;99.90
10089;DHT22;51898;49.864;8.550;2022-07-21T13:23:59;28.50;99.90
10089;DHT22;51898;49.864;8.550;2022-07-21T13:27:01;28.80;99.90
10089;DHT22;51898;49.864;8.550;2022-07-21T13:30:05;28.90;98.10
10089;DHT22;51898;49.864;8.550;2022-07-21T13:33:08;28.70;98.30
10089;DHT22;51898;49.864;8.550;2022-07-21T13:36:10;28.50;97.30
10089;DHT22;51898;49.864;8.550;2022-07-21T13:39:11;28.40;97.70
10089;DHT22;51898;49.864;8.550;2022-07-21T13:42:33;28.40;97.20
10089;DHT22;51898;49.864;8.550;2022-07-21T13:45:55;28.30;98.30
10089;DHT22;51898;49.864;8.550;2022-07-21T13:48:56;28.30;98.70
10089;DHT22;51898;49.864;8.550;2022-07-21T13:51:59;28.30;98.50
10089;DHT22;51898;49.864;8.550;2022-07-21T13:55:02;28.40;98.10
10089;DHT22;51898;49.864;8.550;2022-07-21T13:58:03;28.40;98.20
10089;DHT22;51898;49.864;8.550;2022-07-21T14:01:09;28.30;96.70
10089;DHT22;51898;49.864;8.550;2022-07-21T14:04:11;28.50;97.90
10089;DHT22;51898;49.864;8.550;2022-07-21T14:07:13;28.50;96.60
10089;DHT22;51898;49.864;8.550;2022-07-21T14:10:16;28.50;96.10
10089;DHT22;51898;49.864;8.550;2022-07-21T14:13:17;28.40;97.50
10089;DHT22;51898;49.864;8.550;2022-07-21T14:16:19;28.40;97.10
10089;DHT22;51898;49.864;8.550;2022-07-21T14:19:21;28.20;96.70
10089;DHT22;51898;49.864;8.550;2022-07-21T14:22:22;28.00;96.70
10089;DHT22;51898;49.864;8.550;2022-07-21T14:25:26;27.80;96.70
10089;DHT22;51898;49.864;8.550;2022-07-21T14:28:28;27.90;96.80
10089;DHT22;51898;49.864;8.550;2022-07-21T14:31:31;28.00;96.30
10089;DHT22;51898;49.864;8.550;2022-07-21T14:34:35;28.20;97.00
10089;DHT22;51898;49.864;8.550;2022-07-21T14:37:37;28.80;97.30
10089;DHT22;51898;49.864;8.550;2022-07-21T14:40:39;29.20;96.10
10089;DHT22;51898;49.864;8.550;2022-07-21T14:43:41;28.70;95.80
10089;DHT22;51898;49.864;8.550;2022-07-21T14:46:42;28.60;97.00
10089;DHT22;51898;49.864;8.550;2022-07-21T14:49:44;28.90;96.10
10089;DHT22;51898;49.864;8.550;2022-07-21T14:52:46;29.20;95.90
10089;DHT22;51898;49.864;8.550;2022-07-21T14:55:48;29.50;95.30
10089;DHT22;51898;49.864;8.550;2022-07-21T14:58:49;29.80;94.80
10089;DHT22;51898;49.864;8.550;2022-07-21T15:01:51;30.00;95.50
10089;DHT22;51898;49.864;8.550;2022-07-21T15:04:53;30.40;95.20
10089;DHT22;51898;49.864;8.550;2022-07-21T15:07:54;30.30;94.20
10089;DHT22;51898;49.864;8.550;2022-07-21T15:10:56;30.00;94.20
10089;DHT22;51898;49.864;8.550;2022-07-21T15:13:58;29.40;94.10
10089;DHT22;51898;49.864;8.550;2022-07-21T15:16:59;29.20;94.90
10089;DHT22;51898;49.864;8.550;2022-07-21T15:20:02;29.40;94.40
10089;DHT22;51898;49.864;8.550;2022-07-21T15:23:10;29.30;94.80
10089;DHT22;51898;49.864;8.550;2022-07-21T15:26:12;29.30;94.20
10089;DHT22;51898;49.864;8.550;2022-07-21T15:29:14;29.30;94.20
10089;DHT22;51898;49.864;8.550;2022-07-21T15:32:16;29.20;94.30
10089;DHT22;51898;49.864;8.550;2022-07-21T15:35:18;29.00;94.10
10089;DHT22;51898;49.864;8.550;2022-07-21T15:38:21;29.10;94.60
10089;DHT22;51898;49.864;8.550;2022-07-21T15:41:24;29.20;93.80
10089;DHT22;51898;49.864;8.550;2022-07-21T15:44:46;29.20;94.90
10089;DHT22;51898;49.864;8.550;2022-07-21T15:47:49;28.90;95.00
10089;DHT22;51898;49.864;8.550;2022-07-21T15:50:50;28.70;94.70
10089;DHT22;51898;49.864;8.550;2022-07-21T15:53:52;29.00;94.90
10089;DHT22;51898;49.864;8.550;2022-07-21T15:56:55;29.20;94.50
10089;DHT22;51898;49.864;8.550;2022-07-21T15:59:56;29.30;95.00
10089;DHT22;51898;49.864;8.550;2022-07-21T16:02:58;29.40;94.70
10089;DHT22;51898;49.864;8.550;2022-07-21T16:06:00;29.80;93.30
10089;DHT22;51898;49.864;8.550;2022-07-21T16:09:02;29.40;92.60
10089;DHT22;51898;49.864;8.550;2022-07-21T16:12:07;29.30;92.70
10089;DHT22;51898;49.864;8.550;2022-07-21T16:15:10;29.00;93.00
10089;DHT22;51898;49.864;8.550;2022-07-21T16:18:12;28.80;92.80
10089;DHT22;51898;49.864;8.550;2022-07-21T16:21:14;28.40;92.90
10089;DHT22;51898;49.864;8.550;2022-07-21T16:24:17;28.10;93.70
10089;DHT22;51898;49.864;8.550;2022-07-21T16:27:18;28.00;94.20
10089;DHT22;51898;49.864;8.550;2022-07-21T16:30:21;27.90;94.50
10089;DHT22;51898;49.864;8.550;2022-07-21T16:33:23;27.80;94.70
10089;DHT22;51898;49.864;8.550;2022-07-21T16:36:25;27.80;95.20
10089;DHT22;51898;49.864;8.550;2022-07-21T16:39:27;27.60;95.00
10089;DHT22;51898;49.864;8.550;2022-07-21T16:42:29;27.60;95.10
10089;DHT22;51898;49.864;8.550;2022-07-21T16:45:31;27.50;95.10
10089;DHT22;51898;49.864;8.550;2022-07-21T16:48:34;27.50;95.70
10089;DHT22;51898;49.864;8.550;2022-07-21T16:51:35;27.70;95.10
10089;DHT22;51898;49.864;8.550;2022-07-21T16:54:37;27.90;95.60
10089;DHT22;51898;49.864;8.550;2022-07-21T16:57:39;28.00;94.90
10089;DHT22;51898;49.864;8.550;2022-07-21T17:00:41;28.00;95.50
10089;DHT22;51898;49.864;8.550;2022-07-21T17:03:42;27.90;95.60
10089;DHT22;51898;49.864;8.550;2022-07-21T17:06:44;27.90;95.40
10089;DHT22;51898;49.864;8.550;2022-07-21T17:09:51;27.80;95.70
10089;DHT22;51898;49.864;8.550;2022-07-21T17:12:52;27.90;94.60
10089;DHT22;51898;49.864;8.550;2022-07-21T17:15:54;28.00;94.90
10089;DHT22;51898;49.864;8.550;2022-07-21T17:18:56;28.30;94.30
10089;DHT22;51898;49.864;8.550;2022-07-21T17:21:58;28.20;94.40
10089;DHT22;51898;49.864;8.550;2022-07-21T17:25:01;28.10;94.80
10089;DHT22;51898;49.864;8.550;2022-07-21T17:28:04;27.90;94.90
10089;DHT22;51898;49.864;8.550;2022-07-21T17:31:06;27.80;94.80
10089;DHT22;51898;49.864;8.550;2022-07-21T17:34:09;27.50;95.10
10089;DHT22;51898;49.864;8.550;2022-07-21T17:37:11;27.40;95.40
10089;DHT22;51898;49.864;8.550;2022-07-21T17:40:13;27.30;95.50
10089;DHT22;51898;49.864;8.550;2022-07-21T17:43:16;27.10;96.00
10089;DHT22;51898;49.864;8.550;2022-07-21T17:46:18;27.00;96.50
10089;DHT22;51898;49.864;8.550;2022-07-21T17:49:20;26.90;96.40
10089;DHT22;51898;49.864;8.550;2022-07-21T17:52:21;26.60;96.70
10089;DHT22;51898;49.864;8.550;2022-07-21T17:55:23;26.50;97.60
10089;DHT22;51898;49.864;8.550;2022-07-21T17:58:25;26.40;97.90
10089;DHT22;51898;49.864;8.550;2022-07-21T18:01:45;26.40;98.30
10089;DHT22;51898;49.864;8.550;2022-07-21T18:04:47;26.40;98.80
10089;DHT22;51898;49.864;8.550;2022-07-21T18:07:49;26.30;98.10
10089;DHT22;51898;49.864;8.550;2022-07-21T18:10:51;26.30;98.70
10089;DHT22;51898;49.864;8.550;2022-07-21T18:13:53;26.20;99.20
10089;DHT22;51898;49.864;8.550;2022-07-21T18:16:55;26.30;99.20
10089;DHT22;51898;49.864;8.550;2022-07-21T18:19:57;26.20;99.10
10089;DHT22;51898;49.864;8.550;2022-07-21T18:22:59;26.20;99.30
10089;DHT22;51898;49.864;8.550;2022-07-21T18:26:01;26.20;99.60
10089;DHT22;51898;49.864;8.550;2022-07-21T18:29:02;26.10;99.80
10089;DHT22;51898;49.864;8.550;2022-07-21T18:32:04;26.00;99.90
10089;DHT22;51898;49.864;8.550;2022-07-21T18:35:06;25.90;99.90
10089;DHT22;51898;49.864;8.550;2022-07-21T18:38:09;25.80;99.90
10089;DHT22;51898;49.864;8.550;2022-07-21T18:41:11;25.70;99.90
10089;DHT22;51898;49.864;8.550;2022-07-21T18:44:13;25.60;99.90
10089;DHT22;51898;49.864;8.550;2022-07-21T18:47:15;25.50;99.90
10089;DHT22;51898;49.864;8.550;2022-07-21T18:50:17;25.40;99.90
10089;DHT22;51898;49.864;8.550;2022-07-21T18:53:19;25.40;99.90
10089;DHT22;51898;49.864;8.550;2022-07-21T18:56:20;25.30;99.90
10089;DHT22;51898;49.864;8.550;2022-07-21T18:59:22;25.20;99.90
10089;DHT22;51898;49.864;8.550;2022-07-21T19:02:24;25.10;99.90
10089;DHT22;51898;49.864;8.550;2022-07-21T19:05:26;25.00;99.90
10089;DHT22;51898;49.864;8.550;2022-07-21T19:08:28;24.90;99.90
10089;DHT22;51898;49.864;8.550;2022-07-21T19:11:29;24.90;99.90
10089;DHT22;51898;49.864;8.550;2022-07-21T19:14:31;24.80;99.90
10089;DHT22;51898;49.864;8.550;2022-07-21T19:17:33;24.80;99.90
10089;DHT22;51898;49.864;8.550;2022-07-21T19:20:35;24.80;99.90
10089;DHT22;51898;49.864;8.550;2022-07-21T19:23:37;24.70;99.90
10089;DHT22;51898;49.864;8.550;2022-07-21T19:26:39;24.60;99.90
10089;DHT22;51898;49.864;8.550;2022-07-21T19:29:41;24.60;99.90
10089;DHT22;51898;49.864;8.550;2022-07-21T19:32:43;24.60;99.90
10089;DHT22;51898;49.864;8.550;2022-07-21T19:35:45;24.60;99.90
10089;DHT22;51898;49.864;8.550;2022-07-21T19:38:47;24.60;99.90
10089;DHT22;51898;49.864;8.550;2022-07-21T19:41:48;24.50;99.90
10089;DHT22;51898;49.864;8.550;2022-07-21T19:44:51;24.40;99.90